PWSweather.com
Personal Weather Stations
Station Observations
BLACKWELL
Blackwell, AlfretonGB DE55

BlackwellAlfretonGB DE55

Lat: 53.12076, Lon: -1.354978

Elevation: 410

Station Type: Vantage Pro

High Low Average
Temperature 52.7°F11.5°C 42.6°F5.9°C 47.3°F8.5°C
Dew Point 45.0°F7.2°C 38.8°F3.8°C 41.9°F5.5°C
Winds 4.0 mph 6.4 kmh Calm Calm 2.0 mph WSW3.2 kmh WSW
Wind Gusts 11.0 mph17.7 kmh 1.0 mph1.6 kmh 5.0 mph8.0 kmh
Humidity 95% 59% 82%
Pressure 29.87 in1011.5 mb 29.80 in1009.1 mb -
Precipitation 0.06 in1.5 mm - -
Hour Temp Dew Point Humidity Winds Wind Gusts Pressure Precip Precip Rate Daily Precip Total
12:18 AM 45.3°F7.4°C 42.6°F5.9°C 90% 2.0 mph SW3.2 kmh SW 11.0 mph17.7 kmh 29.87 in1011.5 mb 0.00 in0.0 mm 0.00 in/hr0.0 mm/hr 0.00 in0.0 mm
01:18 AM 45.1°F7.3°C 42.4°F5.8°C 90% 1.0 mph W1.6 kmh W 4.0 mph6.4 kmh 29.86 in1011.2 mb 0.00 in0.0 mm 0.00 in/hr0.0 mm/hr 0.00 in0.0 mm
02:18 AM 45.1°F7.3°C 42.4°F5.8°C 90% 1.0 mph S1.6 kmh S 5.0 mph8.0 kmh 29.84 in1010.5 mb 0.00 in0.0 mm 0.00 in/hr0.0 mm/hr 0.00 in0.0 mm
03:18 AM 45.7°F7.6°C 42.8°F6.0°C 90% 1.0 mph SW1.6 kmh SW 6.0 mph9.7 kmh 29.83 in1010.2 mb 0.00 in0.0 mm 0.00 in/hr0.0 mm/hr 0.00 in0.0 mm
04:18 AM 45.5°F7.5°C 43.0°F6.1°C 91% 1.0 mph SW1.6 kmh SW 6.0 mph9.7 kmh 29.83 in1010.2 mb 0.00 in0.0 mm 0.00 in/hr0.0 mm/hr 0.00 in0.0 mm
05:18 AM 45.3°F7.4°C 43.7°F6.5°C 94% 1.0 mph WSW1.6 kmh WSW 4.0 mph6.4 kmh 29.83 in1010.2 mb 0.00 in0.0 mm 0.00 in/hr0.0 mm/hr 0.00 in0.0 mm
06:18 AM 45.3°F7.4°C 43.9°F6.6°C 95% 2.0 mph WSW3.2 kmh WSW 5.0 mph8.0 kmh 29.84 in1010.5 mb 0.00 in0.0 mm 0.00 in/hr0.0 mm/hr 0.00 in0.0 mm
07:18 AM 45.9°F7.7°C 44.4°F6.9°C 95% 2.0 mph WSW3.2 kmh WSW 4.0 mph6.4 kmh 29.84 in1010.5 mb 0.00 in0.0 mm 0.00 in/hr0.0 mm/hr 0.00 in0.0 mm
08:18 AM 46.6°F8.1°C 44.6°F7.0°C 93% 3.0 mph WSW4.8 kmh WSW 6.0 mph9.7 kmh 29.84 in1010.5 mb 0.00 in0.0 mm 0.00 in/hr0.0 mm/hr 0.00 in0.0 mm
09:18 AM 48.7°F9.3°C 45.0°F7.2°C 87% 3.0 mph WSW4.8 kmh WSW 7.0 mph11.3 kmh 29.85 in1010.8 mb 0.00 in0.0 mm 0.00 in/hr0.0 mm/hr 0.00 in0.0 mm
10:18 AM 49.1°F9.5°C 43.5°F6.4°C 81% 2.0 mph WSW3.2 kmh WSW 5.0 mph8.0 kmh 29.85 in1010.8 mb 0.00 in0.0 mm 0.00 in/hr0.0 mm/hr 0.00 in0.0 mm
11:18 AM 50.0°F10.0°C 42.4°F5.8°C 75% 2.0 mph WSW3.2 kmh WSW 5.0 mph8.0 kmh 29.84 in1010.5 mb 0.00 in0.0 mm 0.00 in/hr0.0 mm/hr 0.00 in0.0 mm
12:18 PM 51.4°F10.8°C 41.2°F5.1°C 68% 4.0 mph WSW6.4 kmh WSW 9.0 mph14.5 kmh 29.84 in1010.5 mb 0.00 in0.0 mm 0.00 in/hr0.0 mm/hr 0.00 in0.0 mm
01:18 PM 52.7°F11.5°C 38.8°F3.8°C 59% 4.0 mph WSW6.4 kmh WSW 9.0 mph14.5 kmh 29.83 in1010.2 mb 0.00 in0.0 mm 0.00 in/hr0.0 mm/hr 0.00 in0.0 mm
02:18 PM 51.3°F10.7°C 39.2°F4.0°C 63% 4.0 mph WSW6.4 kmh WSW 7.0 mph11.3 kmh 29.82 in1009.8 mb 0.00 in0.0 mm 0.00 in/hr0.0 mm/hr 0.00 in0.0 mm
03:18 PM 52.0°F11.1°C 39.4°F4.1°C 62% 3.0 mph WSW4.8 kmh WSW 7.0 mph11.3 kmh 29.80 in1009.1 mb 0.00 in0.0 mm 0.00 in/hr0.0 mm/hr 0.00 in0.0 mm
04:18 PM 51.3°F10.7°C 39.0°F3.9°C 63% 2.0 mph WSW3.2 kmh WSW 5.0 mph8.0 kmh 29.80 in1009.1 mb 0.00 in0.0 mm 0.00 in/hr0.0 mm/hr 0.00 in0.0 mm
05:18 PM 49.1°F9.5°C 40.8°F4.9°C 73% 2.0 mph WSW3.2 kmh WSW 4.0 mph6.4 kmh 29.80 in1009.1 mb 0.00 in0.0 mm 0.00 in/hr0.0 mm/hr 0.00 in0.0 mm
06:18 PM 47.5°F8.6°C 41.2°F5.1°C 79% 2.0 mph WSW3.2 kmh WSW 4.0 mph6.4 kmh 29.81 in1009.5 mb 0.00 in0.0 mm 0.00 in/hr0.0 mm/hr 0.00 in0.0 mm
07:18 PM 46.4°F8.0°C 41.2°F5.1°C 82% Calm Calm 2.0 mph3.2 kmh 29.81 in1009.5 mb 0.00 in0.0 mm 0.00 in/hr0.0 mm/hr 0.00 in0.0 mm
08:18 PM 44.8°F7.1°C 40.8°F4.9°C 86% Calm Calm 1.0 mph1.6 kmh 29.83 in1010.2 mb 0.00 in0.0 mm 0.00 in/hr0.0 mm/hr 0.00 in0.0 mm
09:18 PM 45.0°F7.2°C 41.5°F5.3°C 88% 1.0 mph WSW1.6 kmh WSW 4.0 mph6.4 kmh 29.83 in1010.2 mb 0.01 in0.3 mm 0.00 in/hr0.0 mm/hr 0.01 in0.3 mm
10:18 PM 43.3°F6.3°C 41.2°F5.1°C 92% 1.0 mph WSW1.6 kmh WSW 4.0 mph6.4 kmh 29.84 in1010.5 mb 0.02 in0.5 mm 0.00 in/hr0.0 mm/hr 0.03 in0.8 mm
11:18 PM 42.6°F5.9°C 40.6°F4.8°C 93% Calm Calm 1.0 mph1.6 kmh 29.84 in1010.5 mb 0.02 in0.5 mm 0.00 in/hr0.0 mm/hr 0.06 in1.5 mm